createdAt,value
2023-05-21T00:05:05.139Z,67.86
2023-05-21T00:15:10.074Z,69.35
2023-05-21T00:25:13.394Z,69.76
2023-05-21T00:35:22.478Z,70.90
2023-05-21T00:45:30.291Z,71.29
2023-05-21T00:55:35.873Z,69.13
2023-05-21T01:05:41.316Z,69.81
2023-05-21T01:15:46.916Z,70.55
2023-05-21T01:25:56.405Z,70.52
2023-05-21T01:36:06.485Z,70.35
2023-05-21T01:46:16.534Z,70.83
2023-05-21T01:56:26.376Z,70.76
2023-05-21T02:06:33.128Z,70.52
2023-05-21T02:16:38.621Z,68.86
2023-05-21T02:26:43.799Z,67.68
2023-05-21T02:36:55.162Z,69.92
2023-05-21T02:47:08.733Z,71.13
2023-05-21T02:57:11.700Z,71.09
2023-05-21T03:07:19.380Z,70.74
2023-05-21T03:17:24.056Z,70.42
2023-05-21T03:27:28.580Z,67.34
2023-05-21T03:37:33.339Z,67.28
2023-05-21T03:47:42.171Z,65.86
2023-05-21T03:57:45.995Z,65.67
2023-05-21T04:07:53.193Z,63.10
2023-05-21T04:17:58.994Z,62.12
2023-05-21T04:28:01.719Z,60.57
2023-05-21T04:38:11.167Z,57.31
2023-05-21T04:48:15.983Z,56.41
2023-05-21T04:58:20.673Z,55.99
2023-05-21T05:08:26.188Z,55.01
2023-05-21T05:18:30.902Z,54.04
2023-05-21T05:28:35.887Z,51.87
2023-05-21T05:38:38.320Z,49.31
2023-05-21T05:48:48.968Z,48.14
2023-05-21T05:58:58.855Z,47.02
2023-05-21T06:09:08.290Z,47.20
2023-05-21T06:19:12.842Z,46.34
2023-05-21T06:29:15.716Z,45.62
2023-05-21T06:39:18.536Z,44.67
2023-05-21T06:49:21.168Z,44.06
2023-05-21T06:59:26.908Z,43.71
2023-05-21T07:09:32.488Z,44.16
2023-05-21T07:19:38.445Z,43.10
2023-05-21T07:29:40.861Z,40.66
2023-05-21T07:39:43.592Z,39.79
2023-05-21T07:49:47.990Z,38.64
2023-05-21T07:59:51.433Z,38.58
2023-05-21T08:09:56.567Z,37.04
2023-05-21T08:20:01.523Z,36.14
2023-05-21T08:30:08.387Z,36.37
2023-05-21T08:40:12.771Z,35.20
2023-05-21T08:50:21.256Z,36.05
2023-05-21T09:00:25.991Z,36.04
2023-05-21T09:10:36.413Z,35.39
2023-05-21T09:20:45.249Z,34.79
2023-05-21T09:30:51.294Z,36.29
2023-05-21T09:40:59.269Z,36.12
2023-05-21T09:51:13.172Z,36.75
2023-05-21T10:01:20.096Z,36.88
2023-05-21T10:11:31.227Z,37.04
2023-05-21T10:21:39.090Z,37.49
2023-05-21T10:31:50.199Z,37.28
2023-05-21T10:42:01.394Z,37.49
2023-05-21T10:52:24.276Z,37.51
2023-05-21T11:02:27.141Z,36.92
2023-05-21T11:12:38.032Z,37.18
2023-05-21T11:22:40.553Z,37.40
2023-05-21T11:33:11.497Z,36.78
2023-05-21T11:43:16.370Z,36.57
2023-05-21T11:53:23.455Z,35.37
2023-05-21T12:03:27.504Z,36.08
2023-05-21T12:13:34.644Z,35.18
2023-05-21T12:23:38.164Z,35.81
2023-05-21T12:33:41.668Z,35.62
2023-05-21T12:43:44.247Z,34.89
2023-05-21T12:53:54.171Z,34.57
2023-05-21T13:04:01.697Z,35.16
2023-05-21T13:14:06.415Z,35.02
2023-05-21T13:24:08.824Z,34.45
2023-05-21T13:34:13.837Z,34.30
2023-05-21T13:44:21.026Z,33.73
2023-05-21T13:54:25.477Z,33.76
2023-05-21T14:04:30.084Z,31.83
2023-05-21T14:14:34.657Z,32.74
2023-05-21T14:24:36.892Z,32.95
2023-05-21T14:34:44.192Z,32.57
2023-05-21T14:44:49.234Z,32.82
2023-05-21T14:54:53.972Z,32.54
2023-05-21T15:04:58.940Z,32.49
2023-05-21T15:15:08.468Z,32.14
2023-05-21T15:25:13.150Z,31.91
2023-05-21T15:35:15.720Z,32.62
2023-05-21T15:45:20.639Z,32.67
2023-05-21T15:55:28.280Z,31.72
2023-05-21T16:05:33.188Z,32.64
2023-05-21T16:15:35.701Z,33.00
2023-05-21T16:25:38.623Z,33.44
2023-05-21T16:35:42.223Z,33.90
2023-05-21T16:45:46.773Z,34.00
2023-05-21T16:55:52.482Z,34.68
2023-05-21T17:06:00.279Z,35.11
2023-05-21T17:16:04.769Z,35.19
2023-05-21T17:26:11.337Z,35.16
2023-05-21T17:36:16.609Z,35.11
2023-05-21T17:46:21.388Z,35.37
2023-05-21T17:56:29.425Z,35.56
2023-05-21T18:06:33.953Z,36.40
2023-05-21T18:16:38.849Z,36.59
2023-05-21T18:26:47.145Z,36.72
2023-05-21T18:36:55.177Z,36.83
2023-05-21T18:46:58.052Z,37.18
2023-05-21T18:57:02.862Z,37.38
2023-05-21T19:07:10.267Z,37.45
2023-05-21T19:17:14.922Z,37.90
2023-05-21T19:27:18.324Z,38.22
2023-05-21T19:37:20.662Z,38.66
2023-05-21T19:47:25.060Z,38.97
2023-05-21T19:57:27.352Z,39.42
2023-05-21T20:07:30.795Z,39.79
2023-05-21T20:17:34.509Z,40.35
2023-05-21T20:27:39.181Z,41.24
2023-05-21T20:37:43.566Z,42.11
2023-05-21T20:47:50.271Z,42.36
2023-05-21T20:57:57.958Z,43.71
2023-05-21T21:08:02.679Z,44.48
2023-05-21T21:18:09.967Z,44.46
2023-05-21T21:28:12.252Z,44.92
2023-05-21T21:38:15.062Z,45.91
2023-05-21T21:48:22.677Z,47.30
2023-05-21T21:58:27.832Z,49.17
2023-05-21T22:08:36.933Z,49.60
2023-05-21T22:18:42.313Z,48.70
2023-05-21T22:28:49.475Z,47.29
2023-05-21T22:38:51.701Z,46.66
2023-05-21T22:48:56.151Z,47.01
2023-05-21T22:58:58.711Z,47.14
2023-05-21T23:09:03.413Z,48.41
2023-05-21T23:19:05.667Z,49.78
2023-05-21T23:29:12.685Z,49.91
2023-05-21T23:39:15.211Z,49.76
2023-05-21T23:49:17.450Z,49.70
2023-05-21T23:59:22.050Z,49.24
